Terminal Aerodrome Forecast
Issued by NWS

Home | Current Version | Previous Version | Text Only | Print | Product List | Glossary On
Versions: 1 2 3 4 5 6 7 8 9 10 11 12 13
000
FTUS45 KABQ 011700 RRA
TAFSAF
TAF
KSAF 011741Z 0118/0218 25011KT P6SM FEW070
     FM012000 25014G24KT P6SM SCT080
     FM020200 34014KT P6SM VCSH BKN070
     FM020600 35010KT P6SM SKC
     FM021500 35018KT P6SM SKC=

USA.gov is the U.S. government's official web portal to all federal, state and local government web resources and services.